sensor_id;sensor_type;location;lat;lon;timestamp;pressure;altitude;pressure_sealevel;temperature;humidity
61682;BME280;47577;43.610;25.010;2023-05-02T00:00:27;100923.31;;;8.87;80.04
61682;BME280;47577;43.610;25.010;2023-05-02T00:02:53;100914.53;;;8.85;80.05
61682;BME280;47577;43.610;25.010;2023-05-02T00:05:19;100919.59;;;8.95;78.82
61682;BME280;47577;43.610;25.010;2023-05-02T00:07:45;100924.22;;;8.86;80.25
61682;BME280;47577;43.610;25.010;2023-05-02T00:10:10;100921.41;;;8.95;79.37
61682;BME280;47577;43.610;25.010;2023-05-02T00:12:36;100927.06;;;8.76;81.13
61682;BME280;47577;43.610;25.010;2023-05-02T00:15:03;100923.31;;;8.87;79.34
61682;BME280;47577;43.610;25.010;2023-05-02T00:17:29;100925.94;;;8.88;79.78
61682;BME280;47577;43.610;25.010;2023-05-02T00:19:55;100922.28;;;8.94;79.01
61682;BME280;47577;43.610;25.010;2023-05-02T00:22:21;100922.44;;;8.88;79.70
61682;BME280;47577;43.610;25.010;2023-05-02T00:24:46;100926.66;;;8.98;78.47
61682;BME280;47577;43.610;25.010;2023-05-02T00:27:12;100923.97;;;9.00;78.93
61682;BME280;47577;43.610;25.010;2023-05-02T00:29:38;100936.31;;;9.02;79.97
61682;BME280;47577;43.610;25.010;2023-05-02T00:32:05;100943.31;;;9.05;78.39
61682;BME280;47577;43.610;25.010;2023-05-02T00:34:31;100935.56;;;8.92;79.75
61682;BME280;47577;43.610;25.010;2023-05-02T00:36:58;100940.00;;;8.92;79.96
61682;BME280;47577;43.610;25.010;2023-05-02T00:39:23;100940.84;;;8.94;78.89
61682;BME280;47577;43.610;25.010;2023-05-02T00:41:56;100934.34;;;8.64;80.02
61682;BME280;47577;43.610;25.010;2023-05-02T00:44:22;100933.19;;;8.78;79.33
61682;BME280;47577;43.610;25.010;2023-05-02T00:46:48;100913.94;;;8.67;79.24
61682;BME280;47577;43.610;25.010;2023-05-02T00:49:14;100927.22;;;8.67;79.73
61682;BME280;47577;43.610;25.010;2023-05-02T00:51:39;100936.22;;;8.57;80.23
61682;BME280;47577;43.610;25.010;2023-05-02T00:54:05;100935.34;;;8.56;80.10
61682;BME280;47577;43.610;25.010;2023-05-02T00:56:31;100937.03;;;8.62;79.93
61682;BME280;47577;43.610;25.010;2023-05-02T00:58:57;100932.56;;;8.64;79.70
61682;BME280;47577;43.610;25.010;2023-05-02T01:14:57;100937.41;;;8.37;79.95
61682;BME280;47577;43.610;25.010;2023-05-02T01:17:26;100944.31;;;8.48;80.51
61682;BME280;47577;43.610;25.010;2023-05-02T01:19:58;100939.91;;;8.47;79.79
61682;BME280;47577;43.610;25.010;2023-05-02T01:22:28;100945.97;;;8.55;80.11
61682;BME280;47577;43.610;25.010;2023-05-02T01:29:52;100936.44;;;8.41;80.59
61682;BME280;47577;43.610;25.010;2023-05-02T01:32:19;100949.34;;;8.63;80.10
61682;BME280;47577;43.610;25.010;2023-05-02T01:34:47;100948.47;;;8.64;78.95
61682;BME280;47577;43.610;25.010;2023-05-02T01:37:14;100946.00;;;8.52;79.34
61682;BME280;47577;43.610;25.010;2023-05-02T01:39:43;100943.63;;;8.35;80.74
61682;BME280;47577;43.610;25.010;2023-05-02T01:42:09;100959.41;;;8.42;80.57
61682;BME280;47577;43.610;25.010;2023-05-02T01:44:37;100952.34;;;8.43;80.54
61682;BME280;47577;43.610;25.010;2023-05-02T01:47:04;100946.13;;;8.46;78.95
61682;BME280;47577;43.610;25.010;2023-05-02T01:49:32;100956.56;;;8.55;78.92
61682;BME280;47577;43.610;25.010;2023-05-02T01:52:03;100954.09;;;8.46;78.75
61682;BME280;47577;43.610;25.010;2023-05-02T01:54:30;100948.22;;;8.22;80.11
61682;BME280;47577;43.610;25.010;2023-05-02T01:56:58;100946.44;;;8.22;80.61
61682;BME280;47577;43.610;25.010;2023-05-02T01:59:27;100944.16;;;7.99;81.30
61682;BME280;47577;43.610;25.010;2023-05-02T02:01:55;100945.78;;;8.06;81.13
61682;BME280;47577;43.610;25.010;2023-05-02T02:04:22;100959.81;;;8.16;80.99
61682;BME280;47577;43.610;25.010;2023-05-02T02:06:52;100959.97;;;8.04;80.98
61682;BME280;47577;43.610;25.010;2023-05-02T02:09:19;100962.25;;;7.68;83.02
61682;BME280;47577;43.610;25.010;2023-05-02T02:11:49;100955.59;;;8.01;80.73
61682;BME280;47577;43.610;25.010;2023-05-02T02:14:21;100961.75;;;8.03;81.77
61682;BME280;47577;43.610;25.010;2023-05-02T02:16:53;100947.63;;;8.01;81.08
61682;BME280;47577;43.610;25.010;2023-05-02T02:19:21;100953.78;;;8.05;81.38
61682;BME280;47577;43.610;25.010;2023-05-02T02:21:48;100937.25;;;7.89;81.00
61682;BME280;47577;43.610;25.010;2023-05-02T02:24:17;100952.00;;;8.05;80.53
61682;BME280;47577;43.610;25.010;2023-05-02T02:26:44;100947.94;;;7.81;81.64
61682;BME280;47577;43.610;25.010;2023-05-02T02:29:10;100954.06;;;7.85;81.57
61682;BME280;47577;43.610;25.010;2023-05-02T02:31:36;100943.59;;;7.76;81.63
61682;BME280;47577;43.610;25.010;2023-05-02T02:34:04;100947.66;;;8.00;81.71
61682;BME280;47577;43.610;25.010;2023-05-02T02:36:34;100951.31;;;7.93;81.98
61682;BME280;47577;43.610;25.010;2023-05-02T02:39:35;100960.13;;;7.93;80.65
61682;BME280;47577;43.610;25.010;2023-05-02T02:42:59;100950.38;;;7.95;82.09
61682;BME280;47577;43.610;25.010;2023-05-02T02:45:44;100962.75;;;7.95;81.84
61682;BME280;47577;43.610;25.010;2023-05-02T02:48:24;100958.28;;;7.98;81.06
61682;BME280;47577;43.610;25.010;2023-05-02T02:51:21;100956.66;;;7.88;80.75
61682;BME280;47577;43.610;25.010;2023-05-02T02:56:38;100946.34;;;8.29;79.84
61682;BME280;47577;43.610;25.010;2023-05-02T03:01:39;100950.41;;;8.53;78.59
61682;BME280;47577;43.610;25.010;2023-05-02T03:04:09;100946.22;;;8.38;79.28
61682;BME280;47577;43.610;25.010;2023-05-02T03:06:37;100954.78;;;8.57;78.66
61682;BME280;47577;43.610;25.010;2023-05-02T03:09:03;100957.44;;;8.57;77.80
61682;BME280;47577;43.610;25.010;2023-05-02T03:11:28;100955.53;;;8.65;77.93
61682;BME280;47577;43.610;25.010;2023-05-02T03:13:54;100956.00;;;8.87;77.38
61682;BME280;47577;43.610;25.010;2023-05-02T03:16:40;100959.31;;;9.00;77.77
61682;BME280;47577;43.610;25.010;2023-05-02T03:19:06;100961.66;;;9.17;77.44
61682;BME280;47577;43.610;25.010;2023-05-02T03:21:33;100972.19;;;9.22;77.69
61682;BME280;47577;43.610;25.010;2023-05-02T03:24:00;100963.75;;;9.00;78.42
61682;BME280;47577;43.610;25.010;2023-05-02T03:26:27;100976.88;;;9.07;77.36
61682;BME280;47577;43.610;25.010;2023-05-02T03:28:53;100979.84;;;8.89;78.36
61682;BME280;47577;43.610;25.010;2023-05-02T03:31:19;100980.56;;;8.99;78.15
61682;BME280;47577;43.610;25.010;2023-05-02T03:33:46;100977.97;;;8.94;78.34
61682;BME280;47577;43.610;25.010;2023-05-02T03:36:12;100980.66;;;8.92;78.62
61682;BME280;47577;43.610;25.010;2023-05-02T03:38:37;100964.38;;;8.64;79.59
61682;BME280;47577;43.610;25.010;2023-05-02T03:41:03;100977.47;;;8.75;80.04
61682;BME280;47577;43.610;25.010;2023-05-02T03:43:29;100968.47;;;8.82;79.23
61682;BME280;47577;43.610;25.010;2023-05-02T03:45:55;100985.84;;;9.00;78.84
61682;BME280;47577;43.610;25.010;2023-05-02T03:48:21;100978.78;;;9.01;79.32
61682;BME280;47577;43.610;25.010;2023-05-02T03:50:47;100989.25;;;9.07;79.75
61682;BME280;47577;43.610;25.010;2023-05-02T03:53:13;100991.78;;;9.13;79.47
61682;BME280;47577;43.610;25.010;2023-05-02T03:55:43;100998.75;;;9.20;80.04
61682;BME280;47577;43.610;25.010;2023-05-02T03:58:10;100996.53;;;9.44;78.21
61682;BME280;47577;43.610;25.010;2023-05-02T04:00:36;100989.97;;;9.62;78.41
61682;BME280;47577;43.610;25.010;2023-05-02T04:03:03;101000.28;;;9.77;76.61
61682;BME280;47577;43.610;25.010;2023-05-02T04:05:28;100990.13;;;9.98;76.33
61682;BME280;47577;43.610;25.010;2023-05-02T04:07:55;100998.41;;;10.23;70.85
61682;BME280;47577;43.610;25.010;2023-05-02T04:10:21;101007.31;;;10.61;69.16
61682;BME280;47577;43.610;25.010;2023-05-02T04:12:47;101000.34;;;10.90;66.86
61682;BME280;47577;43.610;25.010;2023-05-02T04:15:13;101002.09;;;11.25;66.24
61682;BME280;47577;43.610;25.010;2023-05-02T04:17:38;101004.03;;;11.51;66.06
61682;BME280;47577;43.610;25.010;2023-05-02T04:20:05;101011.84;;;11.58;66.50
61682;BME280;47577;43.610;25.010;2023-05-02T04:22:31;101009.81;;;11.67;65.98
61682;BME280;47577;43.610;25.010;2023-05-02T04:24:57;101015.59;;;11.82;69.87
61682;BME280;47577;43.610;25.010;2023-05-02T04:27:23;101000.22;;;11.93;68.67
61682;BME280;47577;43.610;25.010;2023-05-02T04:29:49;101009.75;;;12.02;67.08
61682;BME280;47577;43.610;25.010;2023-05-02T04:32:15;101012.00;;;12.14;67.21
61682;BME280;47577;43.610;25.010;2023-05-02T04:34:41;101014.34;;;12.25;67.30
61682;BME280;47577;43.610;25.010;2023-05-02T04:37:07;101029.31;;;12.29;64.65
61682;BME280;47577;43.610;25.010;2023-05-02T04:39:33;101013.31;;;12.29;66.29
61682;BME280;47577;43.610;25.010;2023-05-02T04:41:59;101006.72;;;12.42;67.22
61682;BME280;47577;43.610;25.010;2023-05-02T04:44:24;101003.69;;;12.53;68.53
61682;BME280;47577;43.610;25.010;2023-05-02T04:46:50;100996.09;;;12.68;68.96
61682;BME280;47577;43.610;25.010;2023-05-02T04:49:16;101008.94;;;12.83;66.12
61682;BME280;47577;43.610;25.010;2023-05-02T04:51:41;101014.47;;;13.04;65.78
61682;BME280;47577;43.610;25.010;2023-05-02T04:54:07;101015.75;;;13.19;65.32
61682;BME280;47577;43.610;25.010;2023-05-02T04:56:33;101013.56;;;13.30;62.29
61682;BME280;47577;43.610;25.010;2023-05-02T04:58:59;101009.63;;;13.42;61.74
61682;BME280;47577;43.610;25.010;2023-05-02T05:01:24;101015.34;;;13.56;63.58
61682;BME280;47577;43.610;25.010;2023-05-02T05:03:52;101010.75;;;13.60;63.10
61682;BME280;47577;43.610;25.010;2023-05-02T05:06:18;101014.53;;;13.78;60.79
61682;BME280;47577;43.610;25.010;2023-05-02T05:08:44;101022.03;;;13.92;60.79
61682;BME280;47577;43.610;25.010;2023-05-02T05:11:10;101023.31;;;14.05;61.28
61682;BME280;47577;43.610;25.010;2023-05-02T05:13:36;101019.34;;;14.15;62.39
61682;BME280;47577;43.610;25.010;2023-05-02T05:16:02;101007.72;;;14.16;59.66
61682;BME280;47577;43.610;25.010;2023-05-02T05:18:29;101017.81;;;14.32;59.85
61682;BME280;47577;43.610;25.010;2023-05-02T05:20:55;101011.41;;;14.36;61.10
61682;BME280;47577;43.610;25.010;2023-05-02T05:23:21;101014.53;;;14.47;59.56
61682;BME280;47577;43.610;25.010;2023-05-02T05:25:46;101021.72;;;14.69;58.57
61682;BME280;47577;43.610;25.010;2023-05-02T05:28:12;101007.53;;;14.67;58.22
61682;BME280;47577;43.610;25.010;2023-05-02T05:30:38;101022.00;;;14.83;60.05
61682;BME280;47577;43.610;25.010;2023-05-02T05:33:04;101011.53;;;14.99;58.51
61682;BME280;47577;43.610;25.010;2023-05-02T05:35:29;101028.06;;;15.09;58.46
61682;BME280;47577;43.610;25.010;2023-05-02T05:37:56;101025.34;;;15.10;58.88
61682;BME280;47577;43.610;25.010;2023-05-02T05:40:22;101032.09;;;15.19;58.83
61682;BME280;47577;43.610;25.010;2023-05-02T05:42:47;101028.28;;;15.25;56.45
61682;BME280;47577;43.610;25.010;2023-05-02T05:45:13;101029.81;;;15.30;56.43
61682;BME280;47577;43.610;25.010;2023-05-02T05:47:41;101029.50;;;15.38;56.83
61682;BME280;47577;43.610;25.010;2023-05-02T05:50:07;101031.50;;;15.53;58.00
61682;BME280;47577;43.610;25.010;2023-05-02T05:52:33;101019.97;;;15.51;57.09
61682;BME280;47577;43.610;25.010;2023-05-02T05:54:59;101028.47;;;15.61;55.87
61682;BME280;47577;43.610;25.010;2023-05-02T05:57:24;101034.94;;;15.78;55.59
61682;BME280;47577;43.610;25.010;2023-05-02T05:59:50;101028.47;;;15.82;54.37
61682;BME280;47577;43.610;25.010;2023-05-02T06:02:16;101029.44;;;16.00;56.46
61682;BME280;47577;43.610;25.010;2023-05-02T06:04:43;101030.66;;;16.12;55.56
61682;BME280;47577;43.610;25.010;2023-05-02T06:07:10;101018.44;;;16.25;57.22
61682;BME280;47577;43.610;25.010;2023-05-02T06:09:35;101018.34;;;16.26;55.33
61682;BME280;47577;43.610;25.010;2023-05-02T06:12:01;101033.78;;;16.40;55.70
61682;BME280;47577;43.610;25.010;2023-05-02T06:14:27;101028.84;;;16.50;54.32
61682;BME280;47577;43.610;25.010;2023-05-02T06:16:52;101029.09;;;16.63;56.08
61682;BME280;47577;43.610;25.010;2023-05-02T06:19:18;101025.72;;;16.59;54.35
61682;BME280;47577;43.610;25.010;2023-05-02T06:21:44;101030.34;;;16.75;55.64
61682;BME280;47577;43.610;25.010;2023-05-02T06:24:09;101023.78;;;16.80;57.34
61682;BME280;47577;43.610;25.010;2023-05-02T06:26:35;101040.56;;;16.86;55.75
61682;BME280;47577;43.610;25.010;2023-05-02T06:29:01;101026.97;;;16.89;56.38
61682;BME280;47577;43.610;25.010;2023-05-02T06:31:26;101028.00;;;17.04;57.09
61682;BME280;47577;43.610;25.010;2023-05-02T06:33:52;101024.38;;;17.05;57.44
61682;BME280;47577;43.610;25.010;2023-05-02T06:36:18;101028.50;;;17.12;55.65
61682;BME280;47577;43.610;25.010;2023-05-02T06:38:43;101016.72;;;17.14;57.28
61682;BME280;47577;43.610;25.010;2023-05-02T06:41:12;101032.69;;;17.35;55.30
61682;BME280;47577;43.610;25.010;2023-05-02T06:43:41;101028.25;;;17.51;53.47
61682;BME280;47577;43.610;25.010;2023-05-02T06:46:07;101026.88;;;17.60;53.87
61682;BME280;47577;43.610;25.010;2023-05-02T06:48:34;101031.78;;;17.69;54.91
61682;BME280;47577;43.610;25.010;2023-05-02T06:51:00;101033.44;;;17.72;54.64
61682;BME280;47577;43.610;25.010;2023-05-02T06:53:28;101031.28;;;17.79;51.97
61682;BME280;47577;43.610;25.010;2023-05-02T06:55:54;101006.34;;;17.93;47.48
61682;BME280;47577;43.610;25.010;2023-05-02T06:58:20;101028.50;;;18.14;49.58
61682;BME280;47577;43.610;25.010;2023-05-02T07:00:45;101024.72;;;18.34;46.15
61682;BME280;47577;43.610;25.010;2023-05-02T07:03:13;101030.16;;;18.48;44.89
61682;BME280;47577;43.610;25.010;2023-05-02T07:05:38;101027.13;;;18.54;44.58
61682;BME280;47577;43.610;25.010;2023-05-02T07:08:04;101022.13;;;18.78;44.79
61682;BME280;47577;43.610;25.010;2023-05-02T07:10:30;101019.03;;;18.86;40.94
61682;BME280;47577;43.610;25.010;2023-05-02T07:12:55;101020.34;;;19.09;43.55
61682;BME280;47577;43.610;25.010;2023-05-02T07:15:21;101027.91;;;19.18;41.59
61682;BME280;47577;43.610;25.010;2023-05-02T07:17:47;101011.38;;;19.25;41.25
61682;BME280;47577;43.610;25.010;2023-05-02T07:20:14;101005.88;;;19.26;39.29
61682;BME280;47577;43.610;25.010;2023-05-02T07:22:41;101025.66;;;19.55;38.88
61682;BME280;47577;43.610;25.010;2023-05-02T07:25:07;101028.66;;;19.65;41.41
61682;BME280;47577;43.610;25.010;2023-05-02T07:27:32;101043.06;;;19.80;39.49
61682;BME280;47577;43.610;25.010;2023-05-02T07:29:58;101029.03;;;19.73;37.10
61682;BME280;47577;43.610;25.010;2023-05-02T07:32:24;101029.50;;;19.66;37.63
61682;BME280;47577;43.610;25.010;2023-05-02T07:34:50;101019.59;;;19.52;38.11
61682;BME280;47577;43.610;25.010;2023-05-02T07:37:20;101031.63;;;19.46;38.76
61682;BME280;47577;43.610;25.010;2023-05-02T07:39:46;101029.50;;;19.66;39.47
61682;BME280;47577;43.610;25.010;2023-05-02T07:42:11;101035.44;;;19.87;38.52
61682;BME280;47577;43.610;25.010;2023-05-02T07:44:37;101026.28;;;20.04;37.72
61682;BME280;47577;43.610;25.010;2023-05-02T07:47:03;101022.88;;;20.15;36.06
61682;BME280;47577;43.610;25.010;2023-05-02T07:49:29;101017.47;;;20.15;38.73
61682;BME280;47577;43.610;25.010;2023-05-02T07:51:55;101026.91;;;20.36;37.86
61682;BME280;47577;43.610;25.010;2023-05-02T07:54:21;101010.91;;;20.33;37.98
61682;BME280;47577;43.610;25.010;2023-05-02T07:56:47;101031.84;;;20.57;36.29
61682;BME280;47577;43.610;25.010;2023-05-02T07:59:13;101027.00;;;20.76;35.58
61682;BME280;47577;43.610;25.010;2023-05-02T08:01:40;101022.41;;;20.91;35.56
61682;BME280;47577;43.610;25.010;2023-05-02T08:04:08;101024.38;;;21.02;37.91
61682;BME280;47577;43.610;25.010;2023-05-02T08:06:37;101023.84;;;21.10;35.18
61682;BME280;47577;43.610;25.010;2023-05-02T08:09:03;101005.78;;;21.10;33.78
61682;BME280;47577;43.610;25.010;2023-05-02T08:11:28;101023.56;;;21.27;30.25
61682;BME280;47577;43.610;25.010;2023-05-02T08:13:54;101016.84;;;21.20;29.69
61682;BME280;47577;43.610;25.010;2023-05-02T08:16:20;101031.66;;;21.14;30.05
61682;BME280;47577;43.610;25.010;2023-05-02T08:18:47;101023.06;;;21.35;30.19
61682;BME280;47577;43.610;25.010;2023-05-02T08:21:13;101019.34;;;21.23;30.67
61682;BME280;47577;43.610;25.010;2023-05-02T08:23:40;101025.06;;;21.31;31.29
61682;BME280;47577;43.610;25.010;2023-05-02T08:26:05;101026.66;;;21.48;30.21
61682;BME280;47577;43.610;25.010;2023-05-02T08:28:31;101026.19;;;21.42;28.70
61682;BME280;47577;43.610;25.010;2023-05-02T08:30:57;101022.66;;;21.54;29.27
61682;BME280;47577;43.610;25.010;2023-05-02T08:33:22;101021.47;;;21.58;29.27
61682;BME280;47577;43.610;25.010;2023-05-02T08:35:48;101023.66;;;21.66;28.29
61682;BME280;47577;43.610;25.010;2023-05-02T08:38:14;101027.19;;;21.79;29.43
61682;BME280;47577;43.610;25.010;2023-05-02T08:40:40;101016.47;;;21.78;26.78
61682;BME280;47577;43.610;25.010;2023-05-02T08:43:05;101016.03;;;22.09;28.22
61682;BME280;47577;43.610;25.010;2023-05-02T08:45:36;101016.66;;;22.13;27.39
61682;BME280;47577;43.610;25.010;2023-05-02T08:48:08;101028.13;;;22.17;28.70
61682;BME280;47577;43.610;25.010;2023-05-02T08:50:39;101033.41;;;22.18;26.50
61682;BME280;47577;43.610;25.010;2023-05-02T08:53:07;101014.47;;;22.31;26.96
61682;BME280;47577;43.610;25.010;2023-05-02T08:55:35;101021.63;;;22.32;26.47
61682;BME280;47577;43.610;25.010;2023-05-02T08:58:02;101024.81;;;22.50;28.00
61682;BME280;47577;43.610;25.010;2023-05-02T09:00:28;101024.41;;;22.68;28.00
61682;BME280;47577;43.610;25.010;2023-05-02T09:05:32;101019.31;;;22.39;26.81
61682;BME280;47577;43.610;25.010;2023-05-02T09:08:03;101002.66;;;22.32;27.39
61682;BME280;47577;43.610;25.010;2023-05-02T09:10:29;101006.47;;;22.54;27.92
61682;BME280;47577;43.610;25.010;2023-05-02T09:12:55;100997.19;;;22.69;28.79
61682;BME280;47577;43.610;25.010;2023-05-02T09:15:21;101001.97;;;22.66;28.15
61682;BME280;47577;43.610;25.010;2023-05-02T09:17:47;101005.69;;;23.00;30.64
61682;BME280;47577;43.610;25.010;2023-05-02T09:20:14;100998.09;;;23.05;28.86
61682;BME280;47577;43.610;25.010;2023-05-02T09:22:48;101005.91;;;23.10;26.87
61682;BME280;47577;43.610;25.010;2023-05-02T09:25:15;100985.69;;;23.14;27.23
61682;BME280;47577;43.610;25.010;2023-05-02T09:27:54;100993.13;;;22.99;28.27
61682;BME280;47577;43.610;25.010;2023-05-02T09:30:24;100994.34;;;22.95;27.47
61682;BME280;47577;43.610;25.010;2023-05-02T09:32:51;100974.09;;;23.12;26.84
61682;BME280;47577;43.610;25.010;2023-05-02T09:35:20;100980.88;;;23.17;27.76
61682;BME280;47577;43.610;25.010;2023-05-02T09:37:50;100984.88;;;23.25;24.83
61682;BME280;47577;43.610;25.010;2023-05-02T09:40:16;100982.88;;;23.27;26.84
61682;BME280;47577;43.610;25.010;2023-05-02T09:42:42;100981.94;;;23.39;24.86
61682;BME280;47577;43.610;25.010;2023-05-02T09:45:08;100966.50;;;23.28;25.71
61682;BME280;47577;43.610;25.010;2023-05-02T09:47:34;100963.41;;;23.33;26.58
61682;BME280;47577;43.610;25.010;2023-05-02T09:50:00;100961.09;;;23.51;25.83
61682;BME280;47577;43.610;25.010;2023-05-02T09:52:28;100968.38;;;23.62;24.67
61682;BME280;47577;43.610;25.010;2023-05-02T09:54:53;100966.53;;;23.62;25.00
61682;BME280;47577;43.610;25.010;2023-05-02T09:57:21;100959.13;;;23.76;26.14
61682;BME280;47577;43.610;25.010;2023-05-02T10:00:03;100962.97;;;23.73;26.62
61682;BME280;47577;43.610;25.010;2023-05-02T10:02:31;100951.72;;;23.78;26.16
61682;BME280;47577;43.610;25.010;2023-05-02T10:04:57;100958.38;;;23.73;24.11
61682;BME280;47577;43.610;25.010;2023-05-02T10:07:24;100964.06;;;23.82;25.22
61682;BME280;47577;43.610;25.010;2023-05-02T10:09:53;100950.25;;;23.73;27.09
61682;BME280;47577;43.610;25.010;2023-05-02T10:12:22;100949.78;;;23.91;26.66
61682;BME280;47577;43.610;25.010;2023-05-02T10:14:56;100947.06;;;24.02;27.09
61682;BME280;47577;43.610;25.010;2023-05-02T10:17:30;100937.63;;;24.06;25.85
61682;BME280;47577;43.610;25.010;2023-05-02T10:20:00;100943.66;;;24.21;25.02
61682;BME280;47577;43.610;25.010;2023-05-02T10:22:28;100933.38;;;24.36;24.41
61682;BME280;47577;43.610;25.010;2023-05-02T10:24:56;100943.97;;;24.39;25.67
61682;BME280;47577;43.610;25.010;2023-05-02T10:27:24;100924.56;;;24.44;24.82
61682;BME280;47577;43.610;25.010;2023-05-02T10:29:50;100930.13;;;24.42;24.17
61682;BME280;47577;43.610;25.010;2023-05-02T10:32:17;100934.66;;;24.53;24.68
61682;BME280;47577;43.610;25.010;2023-05-02T10:34:43;100928.97;;;24.68;25.04
61682;BME280;47577;43.610;25.010;2023-05-02T10:37:10;100935.66;;;24.85;25.18
61682;BME280;47577;43.610;25.010;2023-05-02T10:39:35;100943.69;;;24.86;23.40
61682;BME280;47577;43.610;25.010;2023-05-02T10:42:03;100925.81;;;24.84;24.36
61682;BME280;47577;43.610;25.010;2023-05-02T10:44:38;100920.03;;;24.77;23.44
61682;BME280;47577;43.610;25.010;2023-05-02T10:47:20;100920.75;;;24.79;25.16
61682;BME280;47577;43.610;25.010;2023-05-02T10:49:56;100921.28;;;24.94;25.70
61682;BME280;47577;43.610;25.010;2023-05-02T10:52:33;100915.91;;;24.82;24.04
61682;BME280;47577;43.610;25.010;2023-05-02T10:55:19;100923.03;;;24.95;26.65
61682;BME280;47577;43.610;25.010;2023-05-02T10:58:20;100910.66;;;24.91;25.00
61682;BME280;47577;43.610;25.010;2023-05-02T11:00:46;100913.19;;;25.04;25.32
61682;BME280;47577;43.610;25.010;2023-05-02T11:03:12;100920.09;;;25.08;25.62
61682;BME280;47577;43.610;25.010;2023-05-02T11:06:03;100918.94;;;25.10;24.91
61682;BME280;47577;43.610;25.010;2023-05-02T11:08:30;100918.75;;;25.23;24.41
61682;BME280;47577;43.610;25.010;2023-05-02T11:10:56;100916.38;;;25.30;23.26
61682;BME280;47577;43.610;25.010;2023-05-02T11:13:49;100919.19;;;25.49;23.93
61682;BME280;47577;43.610;25.010;2023-05-02T11:16:15;100907.22;;;25.62;23.56
61682;BME280;47577;43.610;25.010;2023-05-02T11:19:00;100909.91;;;25.52;24.50
61682;BME280;47577;43.610;25.010;2023-05-02T11:21:27;100913.09;;;25.67;23.90
61682;BME280;47577;43.610;25.010;2023-05-02T11:29:55;100904.59;;;25.91;24.07
61682;BME280;47577;43.610;25.010;2023-05-02T11:32:21;100897.38;;;25.80;23.67
61682;BME280;47577;43.610;25.010;2023-05-02T11:34:48;100878.91;;;25.84;23.39
61682;BME280;47577;43.610;25.010;2023-05-02T11:37:18;100878.19;;;25.91;23.66
61682;BME280;47577;43.610;25.010;2023-05-02T11:39:44;100893.88;;;25.99;23.67
61682;BME280;47577;43.610;25.010;2023-05-02T11:42:29;100890.81;;;25.92;23.56
61682;BME280;47577;43.610;25.010;2023-05-02T11:44:57;100883.63;;;25.82;22.11
61682;BME280;47577;43.610;25.010;2023-05-02T11:47:25;100875.94;;;25.87;23.23
61682;BME280;47577;43.610;25.010;2023-05-02T11:49:53;100871.09;;;25.60;22.20
61682;BME280;47577;43.610;25.010;2023-05-02T11:52:19;100890.53;;;25.86;23.33
61682;BME280;47577;43.610;25.010;2023-05-02T11:54:44;100878.44;;;25.69;22.36
61682;BME280;47577;43.610;25.010;2023-05-02T11:57:11;100874.22;;;25.96;21.83
61682;BME280;47577;43.610;25.010;2023-05-02T11:59:54;100867.22;;;26.13;22.55
61682;BME280;47577;43.610;25.010;2023-05-02T12:02:40;100859.22;;;26.21;22.17
61682;BME280;47577;43.610;25.010;2023-05-02T12:05:08;100864.38;;;26.34;22.19
61682;BME280;47577;43.610;25.010;2023-05-02T12:07:38;100876.00;;;26.16;23.74
61682;BME280;47577;43.610;25.010;2023-05-02T12:10:05;100864.81;;;26.00;20.79
61682;BME280;47577;43.610;25.010;2023-05-02T12:12:31;100866.94;;;26.16;22.58
61682;BME280;47577;43.610;25.010;2023-05-02T12:14:57;100862.81;;;26.31;22.22
61682;BME280;47577;43.610;25.010;2023-05-02T12:17:23;100870.97;;;26.41;22.12
61682;BME280;47577;43.610;25.010;2023-05-02T12:19:49;100851.91;;;26.51;22.46
61682;BME280;47577;43.610;25.010;2023-05-02T12:22:15;100853.03;;;26.58;23.20
61682;BME280;47577;43.610;25.010;2023-05-02T12:24:42;100849.44;;;26.57;21.67
61682;BME280;47577;43.610;25.010;2023-05-02T12:27:15;100853.78;;;26.40;20.77
61682;BME280;47577;43.610;25.010;2023-05-02T12:29:44;100840.69;;;26.63;20.52
61682;BME280;47577;43.610;25.010;2023-05-02T12:32:10;100857.22;;;26.72;20.96
61682;BME280;47577;43.610;25.010;2023-05-02T12:34:37;100839.09;;;26.80;19.28
61682;BME280;47577;43.610;25.010;2023-05-02T12:37:03;100839.25;;;26.59;21.10
61682;BME280;47577;43.610;25.010;2023-05-02T12:39:36;100835.09;;;26.75;22.06
61682;BME280;47577;43.610;25.010;2023-05-02T12:42:13;100832.25;;;26.67;21.40
61682;BME280;47577;43.610;25.010;2023-05-02T12:44:40;100831.22;;;26.58;20.68
61682;BME280;47577;43.610;25.010;2023-05-02T12:47:08;100824.22;;;26.65;22.31
61682;BME280;47577;43.610;25.010;2023-05-02T12:49:51;100808.53;;;26.77;20.97
61682;BME280;47577;43.610;25.010;2023-05-02T12:52:28;100815.84;;;26.86;20.45
61682;BME280;47577;43.610;25.010;2023-05-02T12:55:19;100813.97;;;26.87;21.04
61682;BME280;47577;43.610;25.010;2023-05-02T12:57:45;100793.66;;;26.71;21.13
61682;BME280;47577;43.610;25.010;2023-05-02T13:00:12;100813.00;;;26.58;21.08
61682;BME280;47577;43.610;25.010;2023-05-02T13:02:37;100811.84;;;26.71;20.65
61682;BME280;47577;43.610;25.010;2023-05-02T13:05:17;100797.78;;;26.75;19.54
61682;BME280;47577;43.610;25.010;2023-05-02T13:07:43;100802.34;;;26.85;19.69
61682;BME280;47577;43.610;25.010;2023-05-02T13:10:09;100804.75;;;26.97;20.49
61682;BME280;47577;43.610;25.010;2023-05-02T13:12:36;100803.06;;;27.24;20.51
61682;BME280;47577;43.610;25.010;2023-05-02T13:15:07;100800.47;;;27.32;20.00
61682;BME280;47577;43.610;25.010;2023-05-02T13:17:35;100799.59;;;27.32;19.15
61682;BME280;47577;43.610;25.010;2023-05-02T13:20:01;100800.19;;;27.26;19.57